Thurston, Oregon
Current Conditions -  °F | °C
As of 2:31 AM on Thursday 18 Dec 2014 (Local Time) from KEUG Reporting Station
Overcast Overcast  
Wind Chill: 38°   Ceiling: 7000
Heat Index: 41°   Visibility: 7mi
Dew Point: 40°   Wind: 5mph
Humidity: 96%   Direction: 220°SW
Pressure: 29.97"   Gusts: NA
Location:  44.05°N, 122.92°W
Report Text: KEUG 181031Z AUTO 22004KT 7SM FEW002 BKN070 OVC090 05/04 A2997 RMK AO2 VIS 1 1/4 RNW 34 T00500044
Loading
Personal Weather Stations






























Interactive Weather Map New forecast layout! Learn more

10-Day Weather Forecast

Advertisements
Track Severe Weather on mobile